createdAt,value
2022-08-10T00:00:21.111Z,54.60
2022-08-10T00:05:43.883Z,54.20
2022-08-10T00:10:36.897Z,54.43
2022-08-10T00:15:52.544Z,53.80
2022-08-10T00:20:48.919Z,53.57
2022-08-10T00:25:54.182Z,54.20
2022-08-10T00:30:59.515Z,53.40
2022-08-10T00:36:04.480Z,53.80
2022-08-10T00:41:10.229Z,53.07
2022-08-10T00:46:16.063Z,53.77
2022-08-10T00:51:22.023Z,54.17
2022-08-10T00:57:14.670Z,54.17
2022-08-10T01:02:09.144Z,53.60
2022-08-10T01:06:52.418Z,53.75
2022-08-10T01:12:38.735Z,53.83
2022-08-10T01:17:50.474Z,53.90
2022-08-10T01:23:21.321Z,53.43
2022-08-10T01:28:38.495Z,53.50
2022-08-10T01:33:58.832Z,53.37
2022-08-10T01:39:00.422Z,53.53
2022-08-10T01:44:08.537Z,52.50
2022-08-10T01:49:15.769Z,52.77
2022-08-10T01:54:23.737Z,52.27
2022-08-10T01:59:36.862Z,52.67
2022-08-10T02:04:44.654Z,51.90
2022-08-10T02:09:55.246Z,53.00
2022-08-10T02:15:06.031Z,51.83
2022-08-10T02:20:14.918Z,52.40
2022-08-10T02:25:41.439Z,52.10
2022-08-10T02:30:32.043Z,52.30
2022-08-10T02:35:54.584Z,52.17
2022-08-10T02:45:03.126Z,51.50
2022-08-10T02:46:02.602Z,52.15
2022-08-10T02:51:16.673Z,51.77
2022-08-10T02:56:31.330Z,51.60
2022-08-10T03:01:39.752Z,51.67
2022-08-10T03:06:47.838Z,51.73
2022-08-10T03:12:34.874Z,52.67
2022-08-10T03:17:03.948Z,52.20
2022-08-10T03:22:11.101Z,51.50
2022-08-10T03:27:17.643Z,50.77
2022-08-10T03:32:26.424Z,51.95
2022-08-10T03:37:31.618Z,52.38
2022-08-10T03:42:38.960Z,51.23
2022-08-10T03:47:45.760Z,51.33
2022-08-10T03:57:56.392Z,51.28
2022-08-10T04:03:07.201Z,50.98
2022-08-10T04:08:12.430Z,51.50
2022-08-10T04:13:17.663Z,51.43
2022-08-10T04:18:22.816Z,51.90
2022-08-10T04:23:30.804Z,51.53
2022-08-10T04:28:36.039Z,51.77
2022-08-10T04:33:44.443Z,51.77
2022-08-10T04:38:55.558Z,54.97
2022-08-10T04:44:00.717Z,54.60
2022-08-10T04:49:05.601Z,52.87
2022-08-10T04:54:15.926Z,53.30
2022-08-10T04:59:20.172Z,52.97
2022-08-10T05:04:35.529Z,53.28
2022-08-10T05:09:32.386Z,53.75
2022-08-10T05:14:37.327Z,54.70
2022-08-10T05:20:04.046Z,56.60
2022-08-10T05:24:49.241Z,57.93
2022-08-10T05:30:01.520Z,57.85
2022-08-10T05:35:01.301Z,57.07
2022-08-10T05:40:07.984Z,55.13
2022-08-10T05:45:24.865Z,55.63
2022-08-10T05:50:35.144Z,54.70
2022-08-10T05:55:40.168Z,55.17
2022-08-10T06:00:50.046Z,54.50
2022-08-10T06:05:58.642Z,55.20
2022-08-10T06:12:27.615Z,56.20
2022-08-10T06:16:15.151Z,56.23
2022-08-10T06:21:20.883Z,55.28
2022-08-10T06:26:26.391Z,55.85
2022-08-10T06:31:47.749Z,56.13
2022-08-10T06:36:44.341Z,55.03
2022-08-10T06:42:14.585Z,56.97
2022-08-10T06:47:03.185Z,56.40
2022-08-10T06:52:15.091Z,56.30
2022-08-10T06:57:20.494Z,56.77
2022-08-10T07:02:36.470Z,55.92
2022-08-10T07:07:44.506Z,55.73
2022-08-10T07:12:51.886Z,56.87
2022-08-10T07:18:00.419Z,56.33
2022-08-10T07:23:56.164Z,56.00
2022-08-10T07:28:14.785Z,56.63
2022-08-10T07:33:22.983Z,58.13
2022-08-10T07:38:31.341Z,59.23
2022-08-10T07:43:41.529Z,59.10
2022-08-10T07:48:50.326Z,57.35
2022-08-10T07:53:57.717Z,58.17
2022-08-10T07:59:05.990Z,56.93
2022-08-10T08:04:14.088Z,57.17
2022-08-10T08:09:21.771Z,56.73
2022-08-10T08:14:28.224Z,56.80
2022-08-10T08:19:41.105Z,57.58
2022-08-10T08:24:43.285Z,57.57
2022-08-10T08:29:52.013Z,57.53
2022-08-10T08:35:09.687Z,58.03
2022-08-10T08:40:19.466Z,57.70
2022-08-10T08:45:54.080Z,57.70
2022-08-10T08:52:09.242Z,57.30
2022-08-10T08:57:01.516Z,57.37
2022-08-10T09:02:15.982Z,57.75
2022-08-10T09:07:59.445Z,57.37
2022-08-10T09:12:57.968Z,57.65
2022-08-10T09:18:23.869Z,57.87
2022-08-10T09:24:04.307Z,58.05
2022-08-10T09:28:52.471Z,58.25
2022-08-10T09:36:19.795Z,58.07
2022-08-10T09:40:50.061Z,57.87
2022-08-10T09:44:57.617Z,57.67
2022-08-10T09:50:14.897Z,57.98
2022-08-10T09:55:23.725Z,58.10
2022-08-10T10:00:45.455Z,57.97
2022-08-10T10:06:12.369Z,57.70
2022-08-10T10:11:37.867Z,57.80
2022-08-10T10:17:03.881Z,58.43
2022-08-10T10:22:41.939Z,58.20
2022-08-10T10:28:24.237Z,58.17
2022-08-10T10:33:57.000Z,58.37
2022-08-10T10:39:04.501Z,58.27
2022-08-10T10:44:30.825Z,57.60
2022-08-10T10:49:42.136Z,57.85
2022-08-10T10:55:07.202Z,57.60
2022-08-10T11:00:14.452Z,57.17
2022-08-10T11:05:34.661Z,57.17
2022-08-10T11:10:46.944Z,57.27
2022-08-10T11:16:13.937Z,57.45
2022-08-10T11:21:55.279Z,57.08
2022-08-10T11:27:03.583Z,57.50
2022-08-10T11:32:21.416Z,57.60
2022-08-10T11:38:31.397Z,57.85
2022-08-10T11:43:19.076Z,57.20
2022-08-10T11:48:53.102Z,57.53
2022-08-10T11:54:02.786Z,57.73
2022-08-10T11:59:27.198Z,57.62
2022-08-10T12:04:35.914Z,58.48
2022-08-10T12:10:11.731Z,57.93
2022-08-10T12:15:10.819Z,57.67
2022-08-10T12:20:25.369Z,57.14
2022-08-10T12:25:56.080Z,57.13
2022-08-10T12:30:44.491Z,57.57
2022-08-10T12:36:17.414Z,57.57
2022-08-10T12:41:06.164Z,57.40
2022-08-10T12:46:36.069Z,58.40
2022-08-10T12:51:53.995Z,57.90
2022-08-10T12:57:14.222Z,58.55
2022-08-10T13:02:35.045Z,57.87
2022-08-10T13:08:24.551Z,58.20
2022-08-10T13:12:53.319Z,58.80
2022-08-10T13:18:01.547Z,59.33
2022-08-10T13:23:10.286Z,57.90
2022-08-10T13:28:37.199Z,57.96
2022-08-10T13:34:41.471Z,57.58
2022-08-10T13:38:43.934Z,57.33
2022-08-10T13:43:54.564Z,58.07
2022-08-10T13:49:03.788Z,57.50
2022-08-10T13:54:10.588Z,58.10
2022-08-10T13:59:17.963Z,57.63
2022-08-10T14:04:23.258Z,57.50
2022-08-10T14:09:31.478Z,57.62
2022-08-10T14:14:38.948Z,57.50
2022-08-10T14:19:47.447Z,56.73
2022-08-10T14:24:57.484Z,56.87
2022-08-10T14:30:03.663Z,57.40
2022-08-10T14:36:19.807Z,57.20
2022-08-10T14:40:24.783Z,56.90
2022-08-10T14:45:33.017Z,57.20
2022-08-10T14:50:55.478Z,57.07
2022-08-10T14:56:05.792Z,56.77
2022-08-10T15:01:12.957Z,60.70
2022-08-10T15:06:30.233Z,59.17
2022-08-10T15:12:14.886Z,59.77
2022-08-10T15:16:45.592Z,56.67
2022-08-10T15:22:01.286Z,57.40
2022-08-10T15:27:03.398Z,56.85
2022-08-10T15:32:28.415Z,57.00
2022-08-10T15:37:47.438Z,56.80
2022-08-10T15:42:49.412Z,56.70
2022-08-10T15:48:03.055Z,57.00
2022-08-10T15:53:17.030Z,56.60
2022-08-10T15:58:41.607Z,56.63
2022-08-10T16:03:54.721Z,56.77
2022-08-10T16:10:23.197Z,57.27
2022-08-10T16:14:20.940Z,56.40
2022-08-10T16:19:28.015Z,57.57
2022-08-10T16:24:36.030Z,56.87
2022-08-10T16:29:55.804Z,56.83
2022-08-10T16:34:54.769Z,56.83
2022-08-10T16:40:01.716Z,56.70
2022-08-10T16:45:11.155Z,57.37
2022-08-10T16:50:20.082Z,56.63
2022-08-10T16:55:49.188Z,56.77
2022-08-10T17:00:35.347Z,56.98
2022-08-10T17:06:10.686Z,56.63
2022-08-10T17:10:54.666Z,56.37
2022-08-10T17:16:03.085Z,56.33
2022-08-10T17:21:14.902Z,57.20
2022-08-10T17:26:35.293Z,57.00
2022-08-10T17:31:53.709Z,57.60
2022-08-10T17:36:42.737Z,57.40
2022-08-10T17:41:51.093Z,56.30
2022-08-10T17:46:57.266Z,57.07
2022-08-10T17:52:07.136Z,56.57
2022-08-10T17:57:19.078Z,56.98
2022-08-10T18:02:28.811Z,56.80
2022-08-10T18:07:39.199Z,57.53
2022-08-10T18:12:47.309Z,57.20
2022-08-10T18:17:59.216Z,58.00
2022-08-10T18:23:04.251Z,58.43
2022-08-10T18:28:15.376Z,58.27
2022-08-10T18:33:25.807Z,56.97
2022-08-10T18:38:33.702Z,57.23
2022-08-10T18:44:11.231Z,57.23
2022-08-10T18:49:13.675Z,56.97
2022-08-10T19:00:03.676Z,55.75
2022-08-10T19:05:31.726Z,56.03
2022-08-10T19:10:52.118Z,56.88
2022-08-10T19:16:09.940Z,55.85
2022-08-10T19:21:26.185Z,57.77
2022-08-10T19:26:49.172Z,56.57
2022-08-10T19:32:06.305Z,55.60
2022-08-10T19:37:40.476Z,57.30
2022-08-10T19:42:50.628Z,56.03
2022-08-10T19:48:11.146Z,56.00
2022-08-10T19:53:29.239Z,55.77
2022-08-10T19:58:40.097Z,55.45
2022-08-10T20:03:55.355Z,55.78
2022-08-10T20:09:08.053Z,55.12
2022-08-10T20:14:28.872Z,56.00
2022-08-10T20:19:52.587Z,56.10
2022-08-10T20:25:05.745Z,55.63
2022-08-10T20:30:14.671Z,54.13
2022-08-10T20:35:26.359Z,54.60
2022-08-10T20:40:34.887Z,54.30
2022-08-10T20:46:08.797Z,55.20
2022-08-10T20:51:13.034Z,54.47
2022-08-10T20:56:36.131Z,54.43
2022-08-10T21:02:06.767Z,54.83
2022-08-10T21:07:50.624Z,54.40
2022-08-10T21:12:47.779Z,53.63
2022-08-10T21:18:10.639Z,54.70
2022-08-10T21:23:19.664Z,53.92
2022-08-10T21:29:00.656Z,54.47
2022-08-10T21:34:10.648Z,54.00
2022-08-10T21:39:52.246Z,54.95
2022-08-10T21:45:58.720Z,56.30
2022-08-10T21:51:06.775Z,55.50
2022-08-10T21:56:52.407Z,55.17
2022-08-10T22:02:18.122Z,54.67
2022-08-10T22:07:42.657Z,53.90
2022-08-10T22:13:11.294Z,53.87
2022-08-10T22:18:35.474Z,53.37
2022-08-10T22:24:18.975Z,53.60
2022-08-10T22:29:50.044Z,54.27
2022-08-10T22:35:29.296Z,52.97
2022-08-10T22:40:52.176Z,54.37
2022-08-10T22:46:18.336Z,53.37
2022-08-10T22:51:24.781Z,53.07
2022-08-10T22:56:49.939Z,53.30
2022-08-10T23:02:08.002Z,53.70
2022-08-10T23:07:20.943Z,52.77
2022-08-10T23:12:38.365Z,52.88
2022-08-10T23:18:04.861Z,53.40
2022-08-10T23:23:12.928Z,53.83
2022-08-10T23:28:39.131Z,53.20
2022-08-10T23:33:37.865Z,52.53
2022-08-10T23:38:38.642Z,52.83
2022-08-10T23:44:03.269Z,52.53
2022-08-10T23:48:57.565Z,53.03
2022-08-10T23:54:10.982Z,52.87
2022-08-10T23:59:19.869Z,53.10
